sensor_id;sensor_type;location;lat;lon;timestamp;temperature;humidity
5276;DHT22;2661;50.786;12.728;2022-12-07T00:01:25;3.00;99.90
5276;DHT22;2661;50.786;12.728;2022-12-07T00:03:53;2.90;99.90
5276;DHT22;2661;50.786;12.728;2022-12-07T00:06:20;2.90;99.90
5276;DHT22;2661;50.786;12.728;2022-12-07T00:08:46;2.90;99.90
5276;DHT22;2661;50.786;12.728;2022-12-07T00:11:15;2.90;99.90
5276;DHT22;2661;50.786;12.728;2022-12-07T00:13:41;2.80;99.90
5276;DHT22;2661;50.786;12.728;2022-12-07T00:16:12;2.90;99.90
5276;DHT22;2661;50.786;12.728;2022-12-07T00:18:39;2.90;99.90
5276;DHT22;2661;50.786;12.728;2022-12-07T00:21:08;2.90;99.90
5276;DHT22;2661;50.786;12.728;2022-12-07T00:23:35;2.90;99.90
5276;DHT22;2661;50.786;12.728;2022-12-07T00:26:03;2.90;99.90
5276;DHT22;2661;50.786;12.728;2022-12-07T00:28:30;2.90;99.90
5276;DHT22;2661;50.786;12.728;2022-12-07T00:31:03;2.90;99.90
5276;DHT22;2661;50.786;12.728;2022-12-07T00:33:30;2.90;99.90
5276;DHT22;2661;50.786;12.728;2022-12-07T00:35:57;2.90;99.90
5276;DHT22;2661;50.786;12.728;2022-12-07T00:38:26;2.90;99.90
5276;DHT22;2661;50.786;12.728;2022-12-07T00:40:54;2.80;99.90
5276;DHT22;2661;50.786;12.728;2022-12-07T00:43:21;2.90;99.90
5276;DHT22;2661;50.786;12.728;2022-12-07T00:45:48;2.90;99.90
5276;DHT22;2661;50.786;12.728;2022-12-07T00:48:15;2.80;99.90
5276;DHT22;2661;50.786;12.728;2022-12-07T00:50:41;2.80;99.90
5276;DHT22;2661;50.786;12.728;2022-12-07T00:53:08;2.80;99.90
5276;DHT22;2661;50.786;12.728;2022-12-07T00:55:35;2.80;99.90
5276;DHT22;2661;50.786;12.728;2022-12-07T00:58:02;2.80;99.90
5276;DHT22;2661;50.786;12.728;2022-12-07T01:00:28;2.90;99.90
5276;DHT22;2661;50.786;12.728;2022-12-07T01:02:55;2.90;99.90
5276;DHT22;2661;50.786;12.728;2022-12-07T01:05:22;2.90;99.90
5276;DHT22;2661;50.786;12.728;2022-12-07T01:07:48;2.90;99.90
5276;DHT22;2661;50.786;12.728;2022-12-07T01:10:15;2.80;99.90
5276;DHT22;2661;50.786;12.728;2022-12-07T01:12:42;2.80;99.90
5276;DHT22;2661;50.786;12.728;2022-12-07T01:15:08;2.80;99.90
5276;DHT22;2661;50.786;12.728;2022-12-07T01:17:35;2.80;99.90
5276;DHT22;2661;50.786;12.728;2022-12-07T01:20:02;2.70;99.90
5276;DHT22;2661;50.786;12.728;2022-12-07T01:22:29;2.70;99.90
5276;DHT22;2661;50.786;12.728;2022-12-07T01:24:56;2.60;99.90
5276;DHT22;2661;50.786;12.728;2022-12-07T01:27:22;2.50;99.90
5276;DHT22;2661;50.786;12.728;2022-12-07T01:29:50;2.60;99.90
5276;DHT22;2661;50.786;12.728;2022-12-07T01:32:17;2.60;99.90
5276;DHT22;2661;50.786;12.728;2022-12-07T01:34:43;2.60;99.90
5276;DHT22;2661;50.786;12.728;2022-12-07T01:37:10;2.70;99.90
5276;DHT22;2661;50.786;12.728;2022-12-07T01:39:36;2.80;99.90
5276;DHT22;2661;50.786;12.728;2022-12-07T01:42:03;2.80;99.90
5276;DHT22;2661;50.786;12.728;2022-12-07T01:44:30;2.90;99.90
5276;DHT22;2661;50.786;12.728;2022-12-07T01:47:02;2.90;99.90
5276;DHT22;2661;50.786;12.728;2022-12-07T01:49:37;2.90;99.90
5276;DHT22;2661;50.786;12.728;2022-12-07T01:52:10;2.90;99.90
5276;DHT22;2661;50.786;12.728;2022-12-07T01:54:39;2.80;99.90
5276;DHT22;2661;50.786;12.728;2022-12-07T01:57:06;2.70;99.90
5276;DHT22;2661;50.786;12.728;2022-12-07T01:59:34;2.60;99.90
5276;DHT22;2661;50.786;12.728;2022-12-07T02:02:01;2.50;99.90
5276;DHT22;2661;50.786;12.728;2022-12-07T02:04:28;2.40;99.90
5276;DHT22;2661;50.786;12.728;2022-12-07T02:06:55;2.20;99.90
5276;DHT22;2661;50.786;12.728;2022-12-07T02:09:22;2.10;99.90
5276;DHT22;2661;50.786;12.728;2022-12-07T02:11:49;2.10;99.90
5276;DHT22;2661;50.786;12.728;2022-12-07T02:14:15;2.00;99.90
5276;DHT22;2661;50.786;12.728;2022-12-07T02:16:54;1.90;99.90
5276;DHT22;2661;50.786;12.728;2022-12-07T02:19:35;1.80;99.90
5276;DHT22;2661;50.786;12.728;2022-12-07T02:22:16;1.70;99.90
5276;DHT22;2661;50.786;12.728;2022-12-07T02:32:15;1.50;99.90
5276;DHT22;2661;50.786;12.728;2022-12-07T02:34:45;1.50;99.90
5276;DHT22;2661;50.786;12.728;2022-12-07T02:37:25;1.50;99.90
5276;DHT22;2661;50.786;12.728;2022-12-07T02:39:57;1.40;99.90
5276;DHT22;2661;50.786;12.728;2022-12-07T02:42:28;1.30;99.90
5276;DHT22;2661;50.786;12.728;2022-12-07T02:44:57;1.30;99.90
5276;DHT22;2661;50.786;12.728;2022-12-07T02:47:24;1.20;99.90
5276;DHT22;2661;50.786;12.728;2022-12-07T02:49:52;1.20;99.90
5276;DHT22;2661;50.786;12.728;2022-12-07T02:52:18;1.30;99.90
5276;DHT22;2661;50.786;12.728;2022-12-07T02:54:45;1.10;99.90
5276;DHT22;2661;50.786;12.728;2022-12-07T02:57:14;1.10;99.90
5276;DHT22;2661;50.786;12.728;2022-12-07T03:00:01;1.00;99.90
5276;DHT22;2661;50.786;12.728;2022-12-07T03:05:18;1.00;99.90
5276;DHT22;2661;50.786;12.728;2022-12-07T03:10:22;1.00;99.90
5276;DHT22;2661;50.786;12.728;2022-12-07T03:15:26;1.00;99.90
5276;DHT22;2661;50.786;12.728;2022-12-07T03:17:54;1.00;99.90
5276;DHT22;2661;50.786;12.728;2022-12-07T03:20:22;1.00;99.90
5276;DHT22;2661;50.786;12.728;2022-12-07T03:22:50;1.00;99.90
5276;DHT22;2661;50.786;12.728;2022-12-07T03:25:17;1.00;99.90
5276;DHT22;2661;50.786;12.728;2022-12-07T03:27:54;1.10;99.90
5276;DHT22;2661;50.786;12.728;2022-12-07T03:30:23;1.10;99.90
5276;DHT22;2661;50.786;12.728;2022-12-07T03:32:53;1.00;99.90
5276;DHT22;2661;50.786;12.728;2022-12-07T03:35:25;1.10;99.90
5276;DHT22;2661;50.786;12.728;2022-12-07T03:38:27;1.10;99.90
5276;DHT22;2661;50.786;12.728;2022-12-07T03:41:02;1.00;99.90
5276;DHT22;2661;50.786;12.728;2022-12-07T03:43:31;1.10;99.90
5276;DHT22;2661;50.786;12.728;2022-12-07T03:51:24;1.10;99.90
5276;DHT22;2661;50.786;12.728;2022-12-07T03:53:58;1.10;99.90
5276;DHT22;2661;50.786;12.728;2022-12-07T03:56:26;1.20;99.90
5276;DHT22;2661;50.786;12.728;2022-12-07T03:58:54;1.30;99.90
5276;DHT22;2661;50.786;12.728;2022-12-07T04:01:22;1.40;99.90
5276;DHT22;2661;50.786;12.728;2022-12-07T04:03:48;1.40;99.90
5276;DHT22;2661;50.786;12.728;2022-12-07T04:06:15;1.40;99.90
5276;DHT22;2661;50.786;12.728;2022-12-07T04:08:42;1.40;99.90
5276;DHT22;2661;50.786;12.728;2022-12-07T04:11:08;1.30;99.90
5276;DHT22;2661;50.786;12.728;2022-12-07T04:13:35;1.30;99.90
5276;DHT22;2661;50.786;12.728;2022-12-07T04:16:21;1.30;99.90
5276;DHT22;2661;50.786;12.728;2022-12-07T04:18:48;1.30;99.90
5276;DHT22;2661;50.786;12.728;2022-12-07T04:21:15;1.30;99.90
5276;DHT22;2661;50.786;12.728;2022-12-07T04:23:41;1.30;99.90
5276;DHT22;2661;50.786;12.728;2022-12-07T04:26:08;1.30;99.90
5276;DHT22;2661;50.786;12.728;2022-12-07T04:28:34;1.40;99.90
5276;DHT22;2661;50.786;12.728;2022-12-07T04:31:01;1.40;99.90
5276;DHT22;2661;50.786;12.728;2022-12-07T04:33:27;1.40;99.90
5276;DHT22;2661;50.786;12.728;2022-12-07T04:35:54;1.50;99.90
5276;DHT22;2661;50.786;12.728;2022-12-07T04:38:20;1.50;99.90
5276;DHT22;2661;50.786;12.728;2022-12-07T04:40:47;1.60;99.90
5276;DHT22;2661;50.786;12.728;2022-12-07T04:43:14;1.70;99.90
5276;DHT22;2661;50.786;12.728;2022-12-07T04:45:45;1.70;99.90
5276;DHT22;2661;50.786;12.728;2022-12-07T04:48:11;1.80;99.90
5276;DHT22;2661;50.786;12.728;2022-12-07T04:50:38;1.90;99.90
5276;DHT22;2661;50.786;12.728;2022-12-07T04:53:11;1.90;99.90
5276;DHT22;2661;50.786;12.728;2022-12-07T04:55:38;1.90;99.90
5276;DHT22;2661;50.786;12.728;2022-12-07T04:58:04;1.90;99.90
5276;DHT22;2661;50.786;12.728;2022-12-07T05:00:31;1.90;99.90
5276;DHT22;2661;50.786;12.728;2022-12-07T05:02:57;2.00;99.90
5276;DHT22;2661;50.786;12.728;2022-12-07T05:05:24;2.10;99.90
5276;DHT22;2661;50.786;12.728;2022-12-07T05:07:51;2.20;99.90
5276;DHT22;2661;50.786;12.728;2022-12-07T05:10:17;2.20;99.90
5276;DHT22;2661;50.786;12.728;2022-12-07T05:12:44;2.20;99.90
5276;DHT22;2661;50.786;12.728;2022-12-07T05:15:12;2.20;99.90
5276;DHT22;2661;50.786;12.728;2022-12-07T05:17:38;2.20;99.90
5276;DHT22;2661;50.786;12.728;2022-12-07T05:20:05;2.30;99.90
5276;DHT22;2661;50.786;12.728;2022-12-07T05:22:32;2.20;99.90
5276;DHT22;2661;50.786;12.728;2022-12-07T05:24:58;2.20;99.90
5276;DHT22;2661;50.786;12.728;2022-12-07T05:27:25;2.20;99.90
5276;DHT22;2661;50.786;12.728;2022-12-07T05:29:51;2.30;99.90
5276;DHT22;2661;50.786;12.728;2022-12-07T05:32:18;2.40;99.90
5276;DHT22;2661;50.786;12.728;2022-12-07T05:34:44;2.40;99.90
5276;DHT22;2661;50.786;12.728;2022-12-07T05:37:11;2.40;99.90
5276;DHT22;2661;50.786;12.728;2022-12-07T05:39:37;2.40;99.90
5276;DHT22;2661;50.786;12.728;2022-12-07T05:42:07;2.40;99.90
5276;DHT22;2661;50.786;12.728;2022-12-07T05:44:40;2.30;99.90
5276;DHT22;2661;50.786;12.728;2022-12-07T05:47:07;2.30;99.90
5276;DHT22;2661;50.786;12.728;2022-12-07T05:49:34;2.20;99.90
5276;DHT22;2661;50.786;12.728;2022-12-07T05:52:00;2.30;99.90
5276;DHT22;2661;50.786;12.728;2022-12-07T05:54:27;2.20;99.90
5276;DHT22;2661;50.786;12.728;2022-12-07T05:56:54;2.20;99.90
5276;DHT22;2661;50.786;12.728;2022-12-07T05:59:21;2.20;99.90
5276;DHT22;2661;50.786;12.728;2022-12-07T06:01:51;2.10;99.90
5276;DHT22;2661;50.786;12.728;2022-12-07T06:04:18;2.20;99.90
5276;DHT22;2661;50.786;12.728;2022-12-07T06:06:44;2.20;99.90
5276;DHT22;2661;50.786;12.728;2022-12-07T06:09:11;2.10;99.90
5276;DHT22;2661;50.786;12.728;2022-12-07T06:11:39;2.20;99.90
5276;DHT22;2661;50.786;12.728;2022-12-07T06:14:24;2.20;99.90
5276;DHT22;2661;50.786;12.728;2022-12-07T06:16:51;2.20;99.90
5276;DHT22;2661;50.786;12.728;2022-12-07T06:19:18;2.20;99.90
5276;DHT22;2661;50.786;12.728;2022-12-07T06:21:44;2.20;99.90
5276;DHT22;2661;50.786;12.728;2022-12-07T06:24:11;2.10;99.90
5276;DHT22;2661;50.786;12.728;2022-12-07T06:26:38;2.20;99.90
5276;DHT22;2661;50.786;12.728;2022-12-07T06:29:05;2.20;99.90
5276;DHT22;2661;50.786;12.728;2022-12-07T06:31:31;2.10;99.90
5276;DHT22;2661;50.786;12.728;2022-12-07T06:34:02;2.10;99.90
5276;DHT22;2661;50.786;12.728;2022-12-07T06:36:28;2.20;99.90
5276;DHT22;2661;50.786;12.728;2022-12-07T06:38:55;2.30;99.90
5276;DHT22;2661;50.786;12.728;2022-12-07T06:41:22;2.40;99.90
5276;DHT22;2661;50.786;12.728;2022-12-07T06:43:49;2.40;99.90
5276;DHT22;2661;50.786;12.728;2022-12-07T06:46:21;2.40;99.90
5276;DHT22;2661;50.786;12.728;2022-12-07T06:48:48;2.30;99.90
5276;DHT22;2661;50.786;12.728;2022-12-07T06:51:15;2.40;99.90
5276;DHT22;2661;50.786;12.728;2022-12-07T06:53:42;2.40;99.90
5276;DHT22;2661;50.786;12.728;2022-12-07T06:56:08;2.40;99.90
5276;DHT22;2661;50.786;12.728;2022-12-07T06:58:35;2.40;99.90
5276;DHT22;2661;50.786;12.728;2022-12-07T07:01:02;2.50;99.90
5276;DHT22;2661;50.786;12.728;2022-12-07T07:03:29;2.50;99.90
5276;DHT22;2661;50.786;12.728;2022-12-07T07:05:55;2.50;99.90
5276;DHT22;2661;50.786;12.728;2022-12-07T07:08:22;2.50;99.90
5276;DHT22;2661;50.786;12.728;2022-12-07T07:10:49;2.50;99.90
5276;DHT22;2661;50.786;12.728;2022-12-07T07:13:16;2.50;99.90
5276;DHT22;2661;50.786;12.728;2022-12-07T07:15:43;2.50;99.90
5276;DHT22;2661;50.786;12.728;2022-12-07T07:18:09;2.40;99.90
5276;DHT22;2661;50.786;12.728;2022-12-07T07:20:36;2.40;99.90
5276;DHT22;2661;50.786;12.728;2022-12-07T07:23:03;2.40;99.90
5276;DHT22;2661;50.786;12.728;2022-12-07T07:25:29;2.40;99.90
5276;DHT22;2661;50.786;12.728;2022-12-07T07:27:56;2.40;99.90
5276;DHT22;2661;50.786;12.728;2022-12-07T07:30:22;2.40;99.90
5276;DHT22;2661;50.786;12.728;2022-12-07T07:32:49;2.40;99.90
5276;DHT22;2661;50.786;12.728;2022-12-07T07:35:16;2.40;99.90
5276;DHT22;2661;50.786;12.728;2022-12-07T07:37:43;2.40;99.90
5276;DHT22;2661;50.786;12.728;2022-12-07T07:40:09;2.40;99.90
5276;DHT22;2661;50.786;12.728;2022-12-07T07:42:36;2.50;99.90
5276;DHT22;2661;50.786;12.728;2022-12-07T07:45:03;2.50;99.90
5276;DHT22;2661;50.786;12.728;2022-12-07T07:47:30;2.50;99.90
5276;DHT22;2661;50.786;12.728;2022-12-07T07:49:56;2.50;99.90
5276;DHT22;2661;50.786;12.728;2022-12-07T07:52:23;2.60;99.90
5276;DHT22;2661;50.786;12.728;2022-12-07T07:54:50;2.60;99.90
5276;DHT22;2661;50.786;12.728;2022-12-07T07:57:17;2.70;99.90
5276;DHT22;2661;50.786;12.728;2022-12-07T07:59:43;2.80;99.90
5276;DHT22;2661;50.786;12.728;2022-12-07T08:02:14;2.80;99.90
5276;DHT22;2661;50.786;12.728;2022-12-07T08:04:40;2.90;99.90
5276;DHT22;2661;50.786;12.728;2022-12-07T08:07:08;2.90;99.90
5276;DHT22;2661;50.786;12.728;2022-12-07T08:09:34;3.00;99.90
5276;DHT22;2661;50.786;12.728;2022-12-07T08:12:01;3.00;99.90
5276;DHT22;2661;50.786;12.728;2022-12-07T08:14:28;3.00;99.90
5276;DHT22;2661;50.786;12.728;2022-12-07T08:16:55;3.00;99.90
5276;DHT22;2661;50.786;12.728;2022-12-07T08:19:21;3.00;99.90
5276;DHT22;2661;50.786;12.728;2022-12-07T08:21:48;3.00;99.90
5276;DHT22;2661;50.786;12.728;2022-12-07T08:24:15;3.00;99.90
5276;DHT22;2661;50.786;12.728;2022-12-07T08:26:42;3.00;99.90
5276;DHT22;2661;50.786;12.728;2022-12-07T08:29:08;2.90;99.90
5276;DHT22;2661;50.786;12.728;2022-12-07T08:31:35;3.00;99.90
5276;DHT22;2661;50.786;12.728;2022-12-07T08:34:02;3.00;99.90
5276;DHT22;2661;50.786;12.728;2022-12-07T08:36:29;3.10;99.90
5276;DHT22;2661;50.786;12.728;2022-12-07T08:38:55;3.20;99.90
5276;DHT22;2661;50.786;12.728;2022-12-07T08:41:42;3.30;99.90
5276;DHT22;2661;50.786;12.728;2022-12-07T08:44:08;3.30;99.90
5276;DHT22;2661;50.786;12.728;2022-12-07T08:46:46;3.30;99.90
5276;DHT22;2661;50.786;12.728;2022-12-07T08:51:41;3.40;99.90
5276;DHT22;2661;50.786;12.728;2022-12-07T08:54:09;3.40;99.90
5276;DHT22;2661;50.786;12.728;2022-12-07T08:56:37;3.40;99.90
5276;DHT22;2661;50.786;12.728;2022-12-07T08:59:04;3.40;99.90
5276;DHT22;2661;50.786;12.728;2022-12-07T09:01:31;3.50;99.90
5276;DHT22;2661;50.786;12.728;2022-12-07T09:03:59;3.60;99.90
5276;DHT22;2661;50.786;12.728;2022-12-07T09:06:25;3.60;99.90
5276;DHT22;2661;50.786;12.728;2022-12-07T09:08:53;3.70;99.90
5276;DHT22;2661;50.786;12.728;2022-12-07T09:11:20;3.80;99.90
5276;DHT22;2661;50.786;12.728;2022-12-07T09:13:54;3.90;99.90
5276;DHT22;2661;50.786;12.728;2022-12-07T09:16:20;4.10;99.90
5276;DHT22;2661;50.786;12.728;2022-12-07T09:18:47;4.10;99.90
5276;DHT22;2661;50.786;12.728;2022-12-07T09:21:13;4.20;99.90
5276;DHT22;2661;50.786;12.728;2022-12-07T09:23:41;4.20;99.90
5276;DHT22;2661;50.786;12.728;2022-12-07T09:26:07;4.30;99.90
5276;DHT22;2661;50.786;12.728;2022-12-07T09:28:36;4.30;99.90
5276;DHT22;2661;50.786;12.728;2022-12-07T09:31:04;4.20;99.90
5276;DHT22;2661;50.786;12.728;2022-12-07T09:33:58;4.20;99.90
5276;DHT22;2661;50.786;12.728;2022-12-07T09:36:25;4.20;99.90
5276;DHT22;2661;50.786;12.728;2022-12-07T09:38:52;4.10;99.90
5276;DHT22;2661;50.786;12.728;2022-12-07T09:41:19;4.20;99.90
5276;DHT22;2661;50.786;12.728;2022-12-07T09:43:46;4.20;99.90
5276;DHT22;2661;50.786;12.728;2022-12-07T09:46:14;4.20;99.90
5276;DHT22;2661;50.786;12.728;2022-12-07T09:48:41;4.20;99.90
5276;DHT22;2661;50.786;12.728;2022-12-07T09:51:18;4.30;99.90
5276;DHT22;2661;50.786;12.728;2022-12-07T09:53:49;4.20;99.90
5276;DHT22;2661;50.786;12.728;2022-12-07T09:56:17;4.20;99.90
5276;DHT22;2661;50.786;12.728;2022-12-07T09:58:44;4.30;99.90
5276;DHT22;2661;50.786;12.728;2022-12-07T10:01:15;4.30;99.90
5276;DHT22;2661;50.786;12.728;2022-12-07T10:03:45;4.40;99.90
5276;DHT22;2661;50.786;12.728;2022-12-07T10:06:14;4.40;99.90
5276;DHT22;2661;50.786;12.728;2022-12-07T10:08:41;4.50;99.90
5276;DHT22;2661;50.786;12.728;2022-12-07T10:11:09;4.50;99.90
5276;DHT22;2661;50.786;12.728;2022-12-07T10:13:41;4.50;99.90
5276;DHT22;2661;50.786;12.728;2022-12-07T10:18:55;4.50;99.90
5276;DHT22;2661;50.786;12.728;2022-12-07T10:21:23;4.50;99.90
5276;DHT22;2661;50.786;12.728;2022-12-07T10:24:03;4.40;99.90
5276;DHT22;2661;50.786;12.728;2022-12-07T10:29:01;4.40;99.90
5276;DHT22;2661;50.786;12.728;2022-12-07T10:31:28;4.40;99.90
5276;DHT22;2661;50.786;12.728;2022-12-07T10:33:59;4.40;99.90
5276;DHT22;2661;50.786;12.728;2022-12-07T10:36:35;4.30;99.90
5276;DHT22;2661;50.786;12.728;2022-12-07T10:39:15;4.30;99.90
5276;DHT22;2661;50.786;12.728;2022-12-07T10:41:55;4.30;99.90
5276;DHT22;2661;50.786;12.728;2022-12-07T10:44:26;4.40;99.90
5276;DHT22;2661;50.786;12.728;2022-12-07T10:52:41;4.30;99.90
5276;DHT22;2661;50.786;12.728;2022-12-07T10:58:14;4.30;99.90
5276;DHT22;2661;50.786;12.728;2022-12-07T11:03:24;4.30;99.90
5276;DHT22;2661;50.786;12.728;2022-12-07T11:08:33;4.30;99.90
5276;DHT22;2661;50.786;12.728;2022-12-07T11:11:30;4.40;99.90
5276;DHT22;2661;50.786;12.728;2022-12-07T11:21:44;4.40;99.90
5276;DHT22;2661;50.786;12.728;2022-12-07T11:24:16;4.40;99.90
5276;DHT22;2661;50.786;12.728;2022-12-07T11:34:49;4.50;99.90
5276;DHT22;2661;50.786;12.728;2022-12-07T11:37:21;4.50;99.90
5276;DHT22;2661;50.786;12.728;2022-12-07T11:39:50;4.50;99.90
5276;DHT22;2661;50.786;12.728;2022-12-07T11:42:22;4.50;99.90
5276;DHT22;2661;50.786;12.728;2022-12-07T11:44:52;4.50;99.90
5276;DHT22;2661;50.786;12.728;2022-12-07T11:47:25;4.60;99.90
5276;DHT22;2661;50.786;12.728;2022-12-07T11:52:43;4.50;99.90
5276;DHT22;2661;50.786;12.728;2022-12-07T11:55:29;4.50;99.90
5276;DHT22;2661;50.786;12.728;2022-12-07T11:58:04;4.40;99.90
5276;DHT22;2661;50.786;12.728;2022-12-07T12:00:36;4.40;99.90
5276;DHT22;2661;50.786;12.728;2022-12-07T12:03:05;4.50;99.90
5276;DHT22;2661;50.786;12.728;2022-12-07T12:05:35;4.50;99.90
5276;DHT22;2661;50.786;12.728;2022-12-07T12:13:21;4.50;99.90
5276;DHT22;2661;50.786;12.728;2022-12-07T12:19:05;4.60;99.90
5276;DHT22;2661;50.786;12.728;2022-12-07T12:21:33;4.70;99.90
5276;DHT22;2661;50.786;12.728;2022-12-07T12:24:01;4.70;99.90
5276;DHT22;2661;50.786;12.728;2022-12-07T12:26:31;4.70;99.90
5276;DHT22;2661;50.786;12.728;2022-12-07T12:28:58;4.80;99.90
5276;DHT22;2661;50.786;12.728;2022-12-07T12:33:54;4.90;99.90
5276;DHT22;2661;50.786;12.728;2022-12-07T12:51:43;4.80;99.90
5276;DHT22;2661;50.786;12.728;2022-12-07T12:54:19;4.70;99.90
5276;DHT22;2661;50.786;12.728;2022-12-07T12:56:48;4.70;99.90
5276;DHT22;2661;50.786;12.728;2022-12-07T12:59:23;4.70;99.90
5276;DHT22;2661;50.786;12.728;2022-12-07T13:01:51;4.80;99.90
5276;DHT22;2661;50.786;12.728;2022-12-07T13:04:24;4.80;99.90
5276;DHT22;2661;50.786;12.728;2022-12-07T13:06:51;4.80;99.90
5276;DHT22;2661;50.786;12.728;2022-12-07T13:09:22;4.80;99.90
5276;DHT22;2661;50.786;12.728;2022-12-07T13:11:49;5.00;99.90
5276;DHT22;2661;50.786;12.728;2022-12-07T13:14:41;5.00;99.90
5276;DHT22;2661;50.786;12.728;2022-12-07T13:17:09;5.00;99.90
5276;DHT22;2661;50.786;12.728;2022-12-07T13:22:34;5.00;99.90
5276;DHT22;2661;50.786;12.728;2022-12-07T13:25:12;5.00;99.90
5276;DHT22;2661;50.786;12.728;2022-12-07T13:27:40;5.00;99.90
5276;DHT22;2661;50.786;12.728;2022-12-07T13:30:14;5.00;99.90
5276;DHT22;2661;50.786;12.728;2022-12-07T13:32:41;5.00;99.90
5276;DHT22;2661;50.786;12.728;2022-12-07T13:35:27;5.00;99.90
5276;DHT22;2661;50.786;12.728;2022-12-07T13:37:54;4.90;99.90
5276;DHT22;2661;50.786;12.728;2022-12-07T13:40:21;4.90;99.90
5276;DHT22;2661;50.786;12.728;2022-12-07T13:42:56;4.80;99.90
5276;DHT22;2661;50.786;12.728;2022-12-07T13:48:14;4.70;99.90
5276;DHT22;2661;50.786;12.728;2022-12-07T13:50:41;4.70;99.90
5276;DHT22;2661;50.786;12.728;2022-12-07T13:53:11;4.60;99.90
5276;DHT22;2661;50.786;12.728;2022-12-07T13:55:43;4.60;99.90
5276;DHT22;2661;50.786;12.728;2022-12-07T13:58:14;4.60;99.90
5276;DHT22;2661;50.786;12.728;2022-12-07T14:00:41;4.60;99.90
5276;DHT22;2661;50.786;12.728;2022-12-07T14:05:38;4.60;99.90
5276;DHT22;2661;50.786;12.728;2022-12-07T14:10:33;4.70;99.90
5276;DHT22;2661;50.786;12.728;2022-12-07T14:13:01;4.70;99.90
5276;DHT22;2661;50.786;12.728;2022-12-07T14:15:32;4.70;99.90
5276;DHT22;2661;50.786;12.728;2022-12-07T14:18:00;4.70;99.90
5276;DHT22;2661;50.786;12.728;2022-12-07T14:20:39;4.60;99.90
5276;DHT22;2661;50.786;12.728;2022-12-07T14:23:21;4.60;99.90
5276;DHT22;2661;50.786;12.728;2022-12-07T14:25:49;4.60;99.90
5276;DHT22;2661;50.786;12.728;2022-12-07T14:28:30;4.60;99.90
5276;DHT22;2661;50.786;12.728;2022-12-07T14:30:57;4.60;99.90
5276;DHT22;2661;50.786;12.728;2022-12-07T14:33:24;4.50;99.90
5276;DHT22;2661;50.786;12.728;2022-12-07T14:35:51;4.60;99.90
5276;DHT22;2661;50.786;12.728;2022-12-07T14:38:22;4.60;99.90
5276;DHT22;2661;50.786;12.728;2022-12-07T14:40:48;4.50;99.90
5276;DHT22;2661;50.786;12.728;2022-12-07T14:43:15;4.40;99.90
5276;DHT22;2661;50.786;12.728;2022-12-07T14:45:42;4.40;99.90
5276;DHT22;2661;50.786;12.728;2022-12-07T14:48:13;4.50;99.90
5276;DHT22;2661;50.786;12.728;2022-12-07T14:51:00;4.40;99.90
5276;DHT22;2661;50.786;12.728;2022-12-07T14:53:48;4.40;99.90
5276;DHT22;2661;50.786;12.728;2022-12-07T14:56:22;4.30;99.90
5276;DHT22;2661;50.786;12.728;2022-12-07T14:58:49;4.30;99.90
5276;DHT22;2661;50.786;12.728;2022-12-07T15:01:15;4.30;99.90
5276;DHT22;2661;50.786;12.728;2022-12-07T15:03:42;4.20;99.90
5276;DHT22;2661;50.786;12.728;2022-12-07T15:06:17;4.10;99.90
5276;DHT22;2661;50.786;12.728;2022-12-07T15:08:44;4.10;99.90
5276;DHT22;2661;50.786;12.728;2022-12-07T15:11:14;4.10;99.90
5276;DHT22;2661;50.786;12.728;2022-12-07T15:13:41;4.10;99.90
5276;DHT22;2661;50.786;12.728;2022-12-07T15:16:30;4.20;99.90
5276;DHT22;2661;50.786;12.728;2022-12-07T15:19:22;4.10;99.90
5276;DHT22;2661;50.786;12.728;2022-12-07T15:21:56;4.10;99.90
5276;DHT22;2661;50.786;12.728;2022-12-07T15:24:23;4.10;99.90
5276;DHT22;2661;50.786;12.728;2022-12-07T15:26:52;4.10;99.90
5276;DHT22;2661;50.786;12.728;2022-12-07T15:29:19;4.00;99.90
5276;DHT22;2661;50.786;12.728;2022-12-07T15:31:49;3.90;99.90
5276;DHT22;2661;50.786;12.728;2022-12-07T15:34:23;3.90;99.90
5276;DHT22;2661;50.786;12.728;2022-12-07T15:36:49;3.80;99.90
5276;DHT22;2661;50.786;12.728;2022-12-07T15:39:16;3.80;99.90
5276;DHT22;2661;50.786;12.728;2022-12-07T15:41:42;3.80;99.90
5276;DHT22;2661;50.786;12.728;2022-12-07T15:44:12;3.70;99.90
5276;DHT22;2661;50.786;12.728;2022-12-07T15:46:58;3.70;99.90
5276;DHT22;2661;50.786;12.728;2022-12-07T15:49:25;3.70;99.90
5276;DHT22;2661;50.786;12.728;2022-12-07T15:51:51;3.80;99.90
5276;DHT22;2661;50.786;12.728;2022-12-07T15:54:22;3.70;99.90
5276;DHT22;2661;50.786;12.728;2022-12-07T15:56:48;3.80;99.90
5276;DHT22;2661;50.786;12.728;2022-12-07T15:59:15;3.80;99.90
5276;DHT22;2661;50.786;12.728;2022-12-07T16:01:42;3.70;99.90
5276;DHT22;2661;50.786;12.728;2022-12-07T16:04:09;3.70;99.90
5276;DHT22;2661;50.786;12.728;2022-12-07T16:06:36;3.80;99.90
5276;DHT22;2661;50.786;12.728;2022-12-07T16:09:03;3.80;99.90
5276;DHT22;2661;50.786;12.728;2022-12-07T16:11:30;3.80;99.90
5276;DHT22;2661;50.786;12.728;2022-12-07T16:13:57;3.80;99.90
5276;DHT22;2661;50.786;12.728;2022-12-07T16:16:23;3.80;99.90
5276;DHT22;2661;50.786;12.728;2022-12-07T16:18:50;3.90;99.90
5276;DHT22;2661;50.786;12.728;2022-12-07T16:21:17;3.90;99.90
5276;DHT22;2661;50.786;12.728;2022-12-07T16:23:50;3.90;99.90
5276;DHT22;2661;50.786;12.728;2022-12-07T16:26:18;3.80;99.90
5276;DHT22;2661;50.786;12.728;2022-12-07T16:28:45;3.80;99.90
5276;DHT22;2661;50.786;12.728;2022-12-07T16:31:15;3.80;99.90
5276;DHT22;2661;50.786;12.728;2022-12-07T16:33:42;3.80;99.90
5276;DHT22;2661;50.786;12.728;2022-12-07T16:36:09;3.80;99.90
5276;DHT22;2661;50.786;12.728;2022-12-07T16:38:37;3.70;99.90
5276;DHT22;2661;50.786;12.728;2022-12-07T16:41:06;3.70;99.90
5276;DHT22;2661;50.786;12.728;2022-12-07T16:43:33;3.70;99.90
5276;DHT22;2661;50.786;12.728;2022-12-07T16:46:00;3.70;99.90
5276;DHT22;2661;50.786;12.728;2022-12-07T16:48:27;3.70;99.90
5276;DHT22;2661;50.786;12.728;2022-12-07T16:50:53;3.60;99.90
5276;DHT22;2661;50.786;12.728;2022-12-07T16:53:21;3.70;99.90
5276;DHT22;2661;50.786;12.728;2022-12-07T16:55:48;3.70;99.90
5276;DHT22;2661;50.786;12.728;2022-12-07T16:58:15;3.70;99.90
5276;DHT22;2661;50.786;12.728;2022-12-07T17:00:42;3.70;99.90
5276;DHT22;2661;50.786;12.728;2022-12-07T17:03:09;3.70;99.90
5276;DHT22;2661;50.786;12.728;2022-12-07T17:05:39;3.70;99.90
5276;DHT22;2661;50.786;12.728;2022-12-07T17:08:06;3.70;99.90
5276;DHT22;2661;50.786;12.728;2022-12-07T17:10:34;3.80;99.90
5276;DHT22;2661;50.786;12.728;2022-12-07T17:13:02;3.70;99.90
5276;DHT22;2661;50.786;12.728;2022-12-07T17:15:56;3.80;99.90
5276;DHT22;2661;50.786;12.728;2022-12-07T17:18:23;3.70;99.90
5276;DHT22;2661;50.786;12.728;2022-12-07T17:20:49;3.80;99.90
5276;DHT22;2661;50.786;12.728;2022-12-07T17:23:16;3.70;99.90
5276;DHT22;2661;50.786;12.728;2022-12-07T17:25:43;3.70;99.90
5276;DHT22;2661;50.786;12.728;2022-12-07T17:28:09;3.60;99.90
5276;DHT22;2661;50.786;12.728;2022-12-07T17:30:37;3.70;99.90
5276;DHT22;2661;50.786;12.728;2022-12-07T17:33:03;3.70;99.90
5276;DHT22;2661;50.786;12.728;2022-12-07T17:35:30;3.60;99.90
5276;DHT22;2661;50.786;12.728;2022-12-07T17:37:56;3.60;99.90
5276;DHT22;2661;50.786;12.728;2022-12-07T17:40:23;3.60;99.90
5276;DHT22;2661;50.786;12.728;2022-12-07T17:42:49;3.60;99.90
5276;DHT22;2661;50.786;12.728;2022-12-07T17:45:17;3.50;99.90
5276;DHT22;2661;50.786;12.728;2022-12-07T17:47:43;3.50;99.90
5276;DHT22;2661;50.786;12.728;2022-12-07T17:50:10;3.50;99.90
5276;DHT22;2661;50.786;12.728;2022-12-07T17:52:37;3.60;99.90